sensor_id;sensor_type;location;lat;lon;timestamp;P1;durP1;ratioP1;P2;durP2;ratioP2
19301;SDS011;9785;59.362;12.152;2023-11-22T00:01:05;1.20;;;1.20;;
19301;SDS011;9785;59.362;12.152;2023-11-22T00:03:33;1.20;;;1.10;;
19301;SDS011;9785;59.362;12.152;2023-11-22T00:06:02;1.10;;;1.00;;
19301;SDS011;9785;59.362;12.152;2023-11-22T00:08:30;1.10;;;1.10;;
19301;SDS011;9785;59.362;12.152;2023-11-22T00:10:59;1.40;;;1.30;;
19301;SDS011;9785;59.362;12.152;2023-11-22T00:13:29;1.40;;;1.30;;
19301;SDS011;9785;59.362;12.152;2023-11-22T00:15:58;1.13;;;1.10;;
19301;SDS011;9785;59.362;12.152;2023-11-22T00:18:26;1.73;;;1.00;;
19301;SDS011;9785;59.362;12.152;2023-11-22T00:20:56;1.30;;;1.30;;
19301;SDS011;9785;59.362;12.152;2023-11-22T00:23:25;1.10;;;1.10;;
19301;SDS011;9785;59.362;12.152;2023-11-22T00:25:56;1.17;;;0.90;;
19301;SDS011;9785;59.362;12.152;2023-11-22T00:28:25;1.00;;;1.00;;
19301;SDS011;9785;59.362;12.152;2023-11-22T00:30:55;2.63;;;1.10;;
19301;SDS011;9785;59.362;12.152;2023-11-22T00:33:24;0.97;;;0.97;;
19301;SDS011;9785;59.362;12.152;2023-11-22T00:35:52;1.00;;;1.00;;
19301;SDS011;9785;59.362;12.152;2023-11-22T00:38:23;1.00;;;1.00;;
19301;SDS011;9785;59.362;12.152;2023-11-22T00:40:52;0.70;;;0.70;;
19301;SDS011;9785;59.362;12.152;2023-11-22T00:43:20;1.10;;;1.10;;
19301;SDS011;9785;59.362;12.152;2023-11-22T00:45:48;1.03;;;1.03;;
19301;SDS011;9785;59.362;12.152;2023-11-22T00:48:19;1.00;;;1.00;;
19301;SDS011;9785;59.362;12.152;2023-11-22T00:50:47;1.07;;;1.07;;
19301;SDS011;9785;59.362;12.152;2023-11-22T00:53:15;1.30;;;1.07;;
19301;SDS011;9785;59.362;12.152;2023-11-22T00:55:45;0.90;;;0.90;;
19301;SDS011;9785;59.362;12.152;2023-11-22T00:58:13;1.00;;;1.00;;
19301;SDS011;9785;59.362;12.152;2023-11-22T01:00:41;1.27;;;1.17;;
19301;SDS011;9785;59.362;12.152;2023-11-22T01:03:09;1.27;;;1.20;;
19301;SDS011;9785;59.362;12.152;2023-11-22T01:05:40;1.57;;;1.30;;
19301;SDS011;9785;59.362;12.152;2023-11-22T01:08:09;1.20;;;1.10;;
19301;SDS011;9785;59.362;12.152;2023-11-22T01:10:37;1.23;;;1.13;;
19301;SDS011;9785;59.362;12.152;2023-11-22T01:13:05;1.20;;;1.20;;
19301;SDS011;9785;59.362;12.152;2023-11-22T01:15:33;0.80;;;0.80;;
19301;SDS011;9785;59.362;12.152;2023-11-22T01:18:02;1.40;;;1.30;;
19301;SDS011;9785;59.362;12.152;2023-11-22T01:20:30;1.00;;;1.00;;
19301;SDS011;9785;59.362;12.152;2023-11-22T01:23:00;1.10;;;1.10;;
19301;SDS011;9785;59.362;12.152;2023-11-22T01:25:28;1.20;;;1.10;;
19301;SDS011;9785;59.362;12.152;2023-11-22T01:27:56;1.13;;;1.10;;
19301;SDS011;9785;59.362;12.152;2023-11-22T01:30:25;1.20;;;1.10;;
19301;SDS011;9785;59.362;12.152;2023-11-22T01:32:55;1.30;;;1.20;;
19301;SDS011;9785;59.362;12.152;2023-11-22T01:35:23;1.20;;;1.10;;
19301;SDS011;9785;59.362;12.152;2023-11-22T01:37:52;1.53;;;1.20;;
19301;SDS011;9785;59.362;12.152;2023-11-22T01:40:21;1.10;;;0.97;;
19301;SDS011;9785;59.362;12.152;2023-11-22T01:42:52;1.27;;;1.10;;
19301;SDS011;9785;59.362;12.152;2023-11-22T01:45:21;0.50;;;0.50;;
19301;SDS011;9785;59.362;12.152;2023-11-22T01:47:49;1.30;;;1.27;;
19301;SDS011;9785;59.362;12.152;2023-11-22T01:50:18;1.07;;;0.97;;
19301;SDS011;9785;59.362;12.152;2023-11-22T01:52:47;1.70;;;1.20;;
19301;SDS011;9785;59.362;12.152;2023-11-22T01:55:15;1.33;;;1.23;;
19301;SDS011;9785;59.362;12.152;2023-11-22T01:57:45;1.50;;;1.40;;
19301;SDS011;9785;59.362;12.152;2023-11-22T02:00:14;1.10;;;1.07;;
19301;SDS011;9785;59.362;12.152;2023-11-22T02:02:43;2.30;;;1.20;;
19301;SDS011;9785;59.362;12.152;2023-11-22T02:05:14;1.33;;;1.27;;
19301;SDS011;9785;59.362;12.152;2023-11-22T02:07:42;1.93;;;1.40;;
19301;SDS011;9785;59.362;12.152;2023-11-22T02:10:10;1.47;;;1.37;;
19301;SDS011;9785;59.362;12.152;2023-11-22T02:12:39;1.37;;;1.27;;
19301;SDS011;9785;59.362;12.152;2023-11-22T02:15:09;1.60;;;1.47;;
19301;SDS011;9785;59.362;12.152;2023-11-22T02:17:38;1.30;;;1.17;;
19301;SDS011;9785;59.362;12.152;2023-11-22T02:20:07;1.47;;;1.40;;
19301;SDS011;9785;59.362;12.152;2023-11-22T02:22:46;1.57;;;1.47;;
19301;SDS011;9785;59.362;12.152;2023-11-22T02:25:16;1.47;;;1.37;;
19301;SDS011;9785;59.362;12.152;2023-11-22T02:27:45;1.47;;;1.37;;
19301;SDS011;9785;59.362;12.152;2023-11-22T02:30:14;1.30;;;1.30;;
19301;SDS011;9785;59.362;12.152;2023-11-22T02:32:42;1.27;;;1.27;;
19301;SDS011;9785;59.362;12.152;2023-11-22T02:35:11;1.63;;;1.03;;
19301;SDS011;9785;59.362;12.152;2023-11-22T02:37:42;1.63;;;1.53;;
19301;SDS011;9785;59.362;12.152;2023-11-22T02:40:14;1.30;;;1.20;;
19301;SDS011;9785;59.362;12.152;2023-11-22T02:42:46;1.27;;;1.20;;
19301;SDS011;9785;59.362;12.152;2023-11-22T02:45:15;1.50;;;1.40;;
19301;SDS011;9785;59.362;12.152;2023-11-22T02:47:44;2.67;;;1.40;;
19301;SDS011;9785;59.362;12.152;2023-11-22T02:50:13;1.40;;;1.30;;
19301;SDS011;9785;59.362;12.152;2023-11-22T02:52:42;1.30;;;1.20;;
19301;SDS011;9785;59.362;12.152;2023-11-22T02:55:10;1.70;;;1.60;;
19301;SDS011;9785;59.362;12.152;2023-11-22T02:57:40;1.57;;;1.47;;
19301;SDS011;9785;59.362;12.152;2023-11-22T03:00:09;2.47;;;1.67;;
19301;SDS011;9785;59.362;12.152;2023-11-22T03:02:39;3.33;;;2.10;;
19301;SDS011;9785;59.362;12.152;2023-11-22T03:05:09;1.80;;;1.70;;
19301;SDS011;9785;59.362;12.152;2023-11-22T03:07:39;2.10;;;1.90;;
19301;SDS011;9785;59.362;12.152;2023-11-22T03:10:07;1.80;;;1.70;;
19301;SDS011;9785;59.362;12.152;2023-11-22T03:12:37;1.80;;;1.70;;
19301;SDS011;9785;59.362;12.152;2023-11-22T03:15:09;2.30;;;2.10;;
19301;SDS011;9785;59.362;12.152;2023-11-22T03:17:38;1.97;;;1.80;;
19301;SDS011;9785;59.362;12.152;2023-11-22T03:20:06;1.80;;;1.70;;
19301;SDS011;9785;59.362;12.152;2023-11-22T03:22:37;2.23;;;2.00;;
19301;SDS011;9785;59.362;12.152;2023-11-22T03:25:07;3.83;;;2.00;;
19301;SDS011;9785;59.362;12.152;2023-11-22T03:27:36;1.70;;;1.60;;
19301;SDS011;9785;59.362;12.152;2023-11-22T03:30:07;2.30;;;1.73;;
19301;SDS011;9785;59.362;12.152;2023-11-22T03:32:38;3.07;;;2.40;;
19301;SDS011;9785;59.362;12.152;2023-11-22T03:35:07;2.60;;;2.20;;
19301;SDS011;9785;59.362;12.152;2023-11-22T03:37:36;2.53;;;2.20;;
19301;SDS011;9785;59.362;12.152;2023-11-22T03:40:05;2.00;;;1.90;;
19301;SDS011;9785;59.362;12.152;2023-11-22T03:42:35;3.10;;;2.40;;
19301;SDS011;9785;59.362;12.152;2023-11-22T03:45:07;2.83;;;2.50;;
19301;SDS011;9785;59.362;12.152;2023-11-22T03:47:35;2.40;;;2.20;;
19301;SDS011;9785;59.362;12.152;2023-11-22T03:50:05;2.23;;;2.10;;
19301;SDS011;9785;59.362;12.152;2023-11-22T03:52:34;2.13;;;1.20;;
19301;SDS011;9785;59.362;12.152;2023-11-22T03:55:03;2.33;;;2.13;;
19301;SDS011;9785;59.362;12.152;2023-11-22T03:57:31;2.20;;;2.03;;
19301;SDS011;9785;59.362;12.152;2023-11-22T04:00:00;3.47;;;2.50;;
19301;SDS011;9785;59.362;12.152;2023-11-22T04:02:29;3.40;;;2.30;;
19301;SDS011;9785;59.362;12.152;2023-11-22T04:04:58;4.87;;;2.40;;
19301;SDS011;9785;59.362;12.152;2023-11-22T04:07:26;2.20;;;1.80;;
19301;SDS011;9785;59.362;12.152;2023-11-22T04:09:55;2.30;;;2.10;;
19301;SDS011;9785;59.362;12.152;2023-11-22T04:12:23;2.53;;;2.13;;
19301;SDS011;9785;59.362;12.152;2023-11-22T04:14:51;2.47;;;2.27;;
19301;SDS011;9785;59.362;12.152;2023-11-22T04:17:20;2.10;;;2.00;;
19301;SDS011;9785;59.362;12.152;2023-11-22T04:19:50;2.30;;;2.10;;
19301;SDS011;9785;59.362;12.152;2023-11-22T04:22:19;2.70;;;2.43;;
19301;SDS011;9785;59.362;12.152;2023-11-22T04:24:47;2.60;;;2.30;;
19301;SDS011;9785;59.362;12.152;2023-11-22T04:27:16;2.40;;;2.27;;
19301;SDS011;9785;59.362;12.152;2023-11-22T04:29:44;2.07;;;1.97;;
19301;SDS011;9785;59.362;12.152;2023-11-22T04:32:12;2.57;;;2.23;;
19301;SDS011;9785;59.362;12.152;2023-11-22T04:34:41;2.83;;;2.40;;
19301;SDS011;9785;59.362;12.152;2023-11-22T04:37:11;2.30;;;2.17;;
19301;SDS011;9785;59.362;12.152;2023-11-22T04:39:39;3.57;;;1.70;;
19301;SDS011;9785;59.362;12.152;2023-11-22T04:42:08;2.27;;;2.07;;
19301;SDS011;9785;59.362;12.152;2023-11-22T04:44:36;2.10;;;2.00;;
19301;SDS011;9785;59.362;12.152;2023-11-22T04:47:04;3.10;;;1.93;;
19301;SDS011;9785;59.362;12.152;2023-11-22T04:49:33;2.40;;;2.20;;
19301;SDS011;9785;59.362;12.152;2023-11-22T04:52:01;2.30;;;2.10;;
19301;SDS011;9785;59.362;12.152;2023-11-22T04:54:31;1.97;;;1.87;;
19301;SDS011;9785;59.362;12.152;2023-11-22T04:57:00;3.53;;;2.40;;
19301;SDS011;9785;59.362;12.152;2023-11-22T04:59:28;2.87;;;2.50;;
19301;SDS011;9785;59.362;12.152;2023-11-22T05:01:57;4.60;;;1.97;;
19301;SDS011;9785;59.362;12.152;2023-11-22T05:04:25;2.40;;;2.07;;
19301;SDS011;9785;59.362;12.152;2023-11-22T05:06:54;2.33;;;2.13;;
19301;SDS011;9785;59.362;12.152;2023-11-22T05:09:22;3.73;;;2.33;;
19301;SDS011;9785;59.362;12.152;2023-11-22T05:11:52;2.53;;;2.37;;
19301;SDS011;9785;59.362;12.152;2023-11-22T05:14:20;2.40;;;2.00;;
19301;SDS011;9785;59.362;12.152;2023-11-22T05:16:50;2.10;;;2.00;;
19301;SDS011;9785;59.362;12.152;2023-11-22T05:19:18;2.50;;;2.30;;
19301;SDS011;9785;59.362;12.152;2023-11-22T05:21:47;1.80;;;1.70;;
19301;SDS011;9785;59.362;12.152;2023-11-22T05:24:16;2.13;;;2.03;;
19301;SDS011;9785;59.362;12.152;2023-11-22T05:26:44;2.80;;;2.33;;
19301;SDS011;9785;59.362;12.152;2023-11-22T05:29:14;2.80;;;2.30;;
19301;SDS011;9785;59.362;12.152;2023-11-22T05:31:42;2.27;;;2.17;;
19301;SDS011;9785;59.362;12.152;2023-11-22T05:34:10;2.30;;;2.10;;
19301;SDS011;9785;59.362;12.152;2023-11-22T05:36:39;2.77;;;2.40;;
19301;SDS011;9785;59.362;12.152;2023-11-22T05:39:07;2.53;;;2.20;;
19301;SDS011;9785;59.362;12.152;2023-11-22T05:41:38;2.00;;;1.90;;
19301;SDS011;9785;59.362;12.152;2023-11-22T05:44:06;1.40;;;1.30;;
19301;SDS011;9785;59.362;12.152;2023-11-22T05:46:36;2.20;;;2.00;;
19301;SDS011;9785;59.362;12.152;2023-11-22T05:49:05;2.53;;;2.33;;
19301;SDS011;9785;59.362;12.152;2023-11-22T05:51:35;3.23;;;1.80;;
19301;SDS011;9785;59.362;12.152;2023-11-22T05:54:04;3.30;;;2.47;;
19301;SDS011;9785;59.362;12.152;2023-11-22T05:56:34;2.10;;;2.00;;
19301;SDS011;9785;59.362;12.152;2023-11-22T05:59:04;2.37;;;1.30;;
19301;SDS011;9785;59.362;12.152;2023-11-22T06:01:33;1.90;;;1.80;;
19301;SDS011;9785;59.362;12.152;2023-11-22T06:04:02;2.07;;;1.93;;
19301;SDS011;9785;59.362;12.152;2023-11-22T06:06:31;2.33;;;2.13;;
19301;SDS011;9785;59.362;12.152;2023-11-22T06:08:59;2.43;;;2.23;;
19301;SDS011;9785;59.362;12.152;2023-11-22T06:11:28;3.47;;;2.47;;
19301;SDS011;9785;59.362;12.152;2023-11-22T06:13:57;2.67;;;1.87;;
19301;SDS011;9785;59.362;12.152;2023-11-22T06:16:25;2.33;;;2.13;;
19301;SDS011;9785;59.362;12.152;2023-11-22T06:18:53;3.27;;;2.70;;
19301;SDS011;9785;59.362;12.152;2023-11-22T06:21:23;2.87;;;2.67;;
19301;SDS011;9785;59.362;12.152;2023-11-22T06:23:53;2.50;;;2.30;;
19301;SDS011;9785;59.362;12.152;2023-11-22T06:26:25;3.30;;;2.40;;
19301;SDS011;9785;59.362;12.152;2023-11-22T06:28:53;2.40;;;2.20;;
19301;SDS011;9785;59.362;12.152;2023-11-22T06:31:22;3.00;;;2.70;;
19301;SDS011;9785;59.362;12.152;2023-11-22T06:33:53;2.57;;;2.33;;
19301;SDS011;9785;59.362;12.152;2023-11-22T06:36:23;3.67;;;2.80;;
19301;SDS011;9785;59.362;12.152;2023-11-22T06:38:51;2.53;;;2.33;;
19301;SDS011;9785;59.362;12.152;2023-11-22T06:41:20;3.83;;;3.22;;
19301;SDS011;9785;59.362;12.152;2023-11-22T06:43:48;2.80;;;2.60;;
19301;SDS011;9785;59.362;12.152;2023-11-22T06:46:17;3.17;;;2.27;;
19301;SDS011;9785;59.362;12.152;2023-11-22T06:48:45;5.50;;;2.70;;
19301;SDS011;9785;59.362;12.152;2023-11-22T06:51:16;3.77;;;2.60;;
19301;SDS011;9785;59.362;12.152;2023-11-22T06:53:46;3.97;;;2.43;;
19301;SDS011;9785;59.362;12.152;2023-11-22T06:56:15;3.10;;;2.43;;
19301;SDS011;9785;59.362;12.152;2023-11-22T06:58:44;2.57;;;2.37;;
19301;SDS011;9785;59.362;12.152;2023-11-22T07:01:13;3.03;;;2.00;;
19301;SDS011;9785;59.362;12.152;2023-11-22T07:03:43;4.30;;;2.47;;
19301;SDS011;9785;59.362;12.152;2023-11-22T07:06:11;2.63;;;2.30;;
19301;SDS011;9785;59.362;12.152;2023-11-22T07:08:40;2.63;;;2.33;;
19301;SDS011;9785;59.362;12.152;2023-11-22T07:11:10;2.53;;;2.20;;
19301;SDS011;9785;59.362;12.152;2023-11-22T07:13:38;2.47;;;2.27;;
19301;SDS011;9785;59.362;12.152;2023-11-22T07:16:07;3.43;;;2.60;;
19301;SDS011;9785;59.362;12.152;2023-11-22T07:18:36;2.50;;;2.13;;
19301;SDS011;9785;59.362;12.152;2023-11-22T07:21:04;3.67;;;2.53;;
19301;SDS011;9785;59.362;12.152;2023-11-22T07:23:33;4.87;;;3.00;;
19301;SDS011;9785;59.362;12.152;2023-11-22T07:26:02;2.70;;;2.50;;
19301;SDS011;9785;59.362;12.152;2023-11-22T07:28:34;4.70;;;2.73;;
19301;SDS011;9785;59.362;12.152;2023-11-22T07:31:03;5.00;;;2.50;;
19301;SDS011;9785;59.362;12.152;2023-11-22T07:33:34;5.67;;;2.63;;
19301;SDS011;9785;59.362;12.152;2023-11-22T07:36:03;5.17;;;2.60;;
19301;SDS011;9785;59.362;12.152;2023-11-22T07:38:31;3.57;;;2.67;;
19301;SDS011;9785;59.362;12.152;2023-11-22T07:41:04;4.10;;;2.23;;
19301;SDS011;9785;59.362;12.152;2023-11-22T07:43:35;3.37;;;2.37;;
19301;SDS011;9785;59.362;12.152;2023-11-22T07:46:04;4.63;;;2.70;;
19301;SDS011;9785;59.362;12.152;2023-11-22T07:48:35;5.07;;;2.70;;
19301;SDS011;9785;59.362;12.152;2023-11-22T07:51:04;4.47;;;3.03;;
19301;SDS011;9785;59.362;12.152;2023-11-22T07:53:33;5.60;;;2.80;;
19301;SDS011;9785;59.362;12.152;2023-11-22T07:56:01;4.47;;;2.07;;
19301;SDS011;9785;59.362;12.152;2023-11-22T07:58:31;10.97;;;2.73;;
19301;SDS011;9785;59.362;12.152;2023-11-22T08:01:00;6.33;;;3.00;;
19301;SDS011;9785;59.362;12.152;2023-11-22T08:03:31;4.00;;;2.57;;
19301;SDS011;9785;59.362;12.152;2023-11-22T08:06:01;5.43;;;2.80;;
19301;SDS011;9785;59.362;12.152;2023-11-22T08:08:31;5.00;;;2.87;;
19301;SDS011;9785;59.362;12.152;2023-11-22T08:11:05;4.87;;;3.03;;
19301;SDS011;9785;59.362;12.152;2023-11-22T08:13:41;5.67;;;3.10;;
19301;SDS011;9785;59.362;12.152;2023-11-22T08:16:13;2.63;;;2.40;;
19301;SDS011;9785;59.362;12.152;2023-11-22T08:18:41;7.07;;;2.77;;
19301;SDS011;9785;59.362;12.152;2023-11-22T08:21:10;5.50;;;3.27;;
19301;SDS011;9785;59.362;12.152;2023-11-22T08:23:39;3.57;;;2.90;;
19301;SDS011;9785;59.362;12.152;2023-11-22T08:26:07;6.53;;;3.20;;
19301;SDS011;9785;59.362;12.152;2023-11-22T08:28:36;2.23;;;1.63;;
19301;SDS011;9785;59.362;12.152;2023-11-22T08:31:04;7.63;;;3.20;;
19301;SDS011;9785;59.362;12.152;2023-11-22T08:33:37;5.73;;;2.80;;
19301;SDS011;9785;59.362;12.152;2023-11-22T08:36:06;4.87;;;2.83;;
19301;SDS011;9785;59.362;12.152;2023-11-22T08:38:35;5.03;;;2.37;;
19301;SDS011;9785;59.362;12.152;2023-11-22T08:41:07;6.97;;;2.90;;
19301;SDS011;9785;59.362;12.152;2023-11-22T08:43:39;6.40;;;2.93;;
19301;SDS011;9785;59.362;12.152;2023-11-22T08:46:08;5.77;;;2.93;;
19301;SDS011;9785;59.362;12.152;2023-11-22T08:48:41;6.53;;;3.10;;
19301;SDS011;9785;59.362;12.152;2023-11-22T08:51:10;9.30;;;3.83;;
19301;SDS011;9785;59.362;12.152;2023-11-22T08:53:41;8.63;;;3.00;;
19301;SDS011;9785;59.362;12.152;2023-11-22T08:56:11;5.73;;;2.63;;
19301;SDS011;9785;59.362;12.152;2023-11-22T08:58:39;6.47;;;2.73;;
19301;SDS011;9785;59.362;12.152;2023-11-22T09:01:09;2.57;;;2.10;;
19301;SDS011;9785;59.362;12.152;2023-11-22T09:03:42;6.83;;;2.90;;
19301;SDS011;9785;59.362;12.152;2023-11-22T09:06:12;2.03;;;1.83;;
19301;SDS011;9785;59.362;12.152;2023-11-22T09:08:41;6.57;;;2.73;;
19301;SDS011;9785;59.362;12.152;2023-11-22T09:11:09;7.33;;;1.90;;
19301;SDS011;9785;59.362;12.152;2023-11-22T09:13:38;7.17;;;3.13;;
19301;SDS011;9785;59.362;12.152;2023-11-22T09:16:06;3.00;;;2.33;;
19301;SDS011;9785;59.362;12.152;2023-11-22T09:18:36;6.37;;;3.37;;
19301;SDS011;9785;59.362;12.152;2023-11-22T09:21:06;4.50;;;2.70;;
19301;SDS011;9785;59.362;12.152;2023-11-22T09:23:36;4.30;;;2.33;;
19301;SDS011;9785;59.362;12.152;2023-11-22T09:26:05;4.10;;;2.63;;
19301;SDS011;9785;59.362;12.152;2023-11-22T09:28:33;7.20;;;2.57;;
19301;SDS011;9785;59.362;12.152;2023-11-22T09:31:02;6.10;;;3.07;;
19301;SDS011;9785;59.362;12.152;2023-11-22T09:33:33;4.80;;;3.00;;
19301;SDS011;9785;59.362;12.152;2023-11-22T09:36:01;6.57;;;2.77;;
19301;SDS011;9785;59.362;12.152;2023-11-22T09:38:36;6.10;;;2.30;;
19301;SDS011;9785;59.362;12.152;2023-11-22T09:41:05;4.87;;;2.23;;
19301;SDS011;9785;59.362;12.152;2023-11-22T09:43:34;3.53;;;2.17;;
19301;SDS011;9785;59.362;12.152;2023-11-22T09:46:03;2.30;;;1.40;;
19301;SDS011;9785;59.362;12.152;2023-11-22T09:48:31;6.90;;;2.40;;
19301;SDS011;9785;59.362;12.152;2023-11-22T09:51:01;7.00;;;2.63;;
19301;SDS011;9785;59.362;12.152;2023-11-22T09:53:32;2.97;;;2.33;;
19301;SDS011;9785;59.362;12.152;2023-11-22T09:56:03;2.97;;;2.33;;
19301;SDS011;9785;59.362;12.152;2023-11-22T09:58:38;0.67;;;0.63;;
19301;SDS011;9785;59.362;12.152;2023-11-22T10:01:10;2.43;;;1.70;;
19301;SDS011;9785;59.362;12.152;2023-11-22T10:03:40;2.07;;;1.50;;
19301;SDS011;9785;59.362;12.152;2023-11-22T10:06:08;4.90;;;1.17;;
19301;SDS011;9785;59.362;12.152;2023-11-22T10:08:37;6.47;;;2.13;;
19301;SDS011;9785;59.362;12.152;2023-11-22T10:11:07;4.13;;;1.50;;
19301;SDS011;9785;59.362;12.152;2023-11-22T10:13:35;3.43;;;1.97;;
19301;SDS011;9785;59.362;12.152;2023-11-22T10:16:09;2.97;;;1.63;;
19301;SDS011;9785;59.362;12.152;2023-11-22T10:18:39;2.53;;;2.00;;
19301;SDS011;9785;59.362;12.152;2023-11-22T10:21:20;2.47;;;1.80;;
19301;SDS011;9785;59.362;12.152;2023-11-22T10:23:50;3.07;;;1.80;;
19301;SDS011;9785;59.362;12.152;2023-11-22T10:26:24;1.77;;;1.67;;
19301;SDS011;9785;59.362;12.152;2023-11-22T10:28:55;1.33;;;1.23;;
19301;SDS011;9785;59.362;12.152;2023-11-22T10:31:23;3.40;;;1.73;;
19301;SDS011;9785;59.362;12.152;2023-11-22T10:33:52;3.97;;;1.77;;
19301;SDS011;9785;59.362;12.152;2023-11-22T10:36:21;2.23;;;1.20;;
19301;SDS011;9785;59.362;12.152;2023-11-22T10:38:50;1.70;;;1.40;;
19301;SDS011;9785;59.362;12.152;2023-11-22T10:41:19;2.67;;;1.40;;
19301;SDS011;9785;59.362;12.152;2023-11-22T10:43:51;1.70;;;1.60;;
19301;SDS011;9785;59.362;12.152;2023-11-22T10:46:24;1.67;;;1.40;;
19301;SDS011;9785;59.362;12.152;2023-11-22T10:48:56;1.77;;;1.43;;
19301;SDS011;9785;59.362;12.152;2023-11-22T10:51:25;1.50;;;1.40;;
19301;SDS011;9785;59.362;12.152;2023-11-22T10:53:57;2.37;;;1.40;;
19301;SDS011;9785;59.362;12.152;2023-11-22T10:56:27;1.87;;;1.60;;
19301;SDS011;9785;59.362;12.152;2023-11-22T10:59:05;4.90;;;1.40;;
19301;SDS011;9785;59.362;12.152;2023-11-22T11:01:39;3.57;;;1.70;;
19301;SDS011;9785;59.362;12.152;2023-11-22T11:04:15;1.80;;;1.60;;
19301;SDS011;9785;59.362;12.152;2023-11-22T11:06:50;1.40;;;1.30;;
19301;SDS011;9785;59.362;12.152;2023-11-22T11:09:22;2.63;;;1.50;;
19301;SDS011;9785;59.362;12.152;2023-11-22T11:11:56;3.23;;;1.37;;
19301;SDS011;9785;59.362;12.152;2023-11-22T11:14:27;1.97;;;1.30;;
19301;SDS011;9785;59.362;12.152;2023-11-22T11:16:55;1.50;;;1.37;;
19301;SDS011;9785;59.362;12.152;2023-11-22T11:19:25;0.47;;;0.47;;
19301;SDS011;9785;59.362;12.152;2023-11-22T11:21:54;2.53;;;1.13;;
19301;SDS011;9785;59.362;12.152;2023-11-22T11:24:23;6.23;;;0.80;;
19301;SDS011;9785;59.362;12.152;2023-11-22T11:26:52;3.97;;;1.10;;
19301;SDS011;9785;59.362;12.152;2023-11-22T11:29:32;3.03;;;1.50;;
19301;SDS011;9785;59.362;12.152;2023-11-22T11:32:02;1.23;;;1.10;;
19301;SDS011;9785;59.362;12.152;2023-11-22T11:34:32;3.30;;;1.17;;
19301;SDS011;9785;59.362;12.152;2023-11-22T11:37:14;1.60;;;1.27;;
19301;SDS011;9785;59.362;12.152;2023-11-22T11:39:45;1.23;;;1.10;;
19301;SDS011;9785;59.362;12.152;2023-11-22T11:42:13;2.73;;;1.10;;
19301;SDS011;9785;59.362;12.152;2023-11-22T11:47:34;2.33;;;1.33;;
19301;SDS011;9785;59.362;12.152;2023-11-22T11:50:02;3.33;;;1.40;;
19301;SDS011;9785;59.362;12.152;2023-11-22T11:52:33;3.93;;;1.40;;
19301;SDS011;9785;59.362;12.152;2023-11-22T11:55:02;1.20;;;1.10;;
19301;SDS011;9785;59.362;12.152;2023-11-22T11:57:31;2.57;;;1.20;;
19301;SDS011;9785;59.362;12.152;2023-11-22T12:00:00;1.27;;;0.80;;
19301;SDS011;9785;59.362;12.152;2023-11-22T12:02:31;3.27;;;0.73;;
19301;SDS011;9785;59.362;12.152;2023-11-22T12:05:01;9.10;;;1.70;;
19301;SDS011;9785;59.362;12.152;2023-11-22T12:07:35;10.27;;;1.97;;
19301;SDS011;9785;59.362;12.152;2023-11-22T12:10:04;6.07;;;1.23;;
19301;SDS011;9785;59.362;12.152;2023-11-22T12:12:33;6.27;;;1.30;;
19301;SDS011;9785;59.362;12.152;2023-11-22T12:15:02;3.33;;;1.10;;
19301;SDS011;9785;59.362;12.152;2023-11-22T12:17:34;3.20;;;1.07;;
19301;SDS011;9785;59.362;12.152;2023-11-22T12:20:12;6.47;;;0.87;;
19301;SDS011;9785;59.362;12.152;2023-11-22T12:22:45;3.10;;;1.00;;
19301;SDS011;9785;59.362;12.152;2023-11-22T12:25:14;4.40;;;1.23;;
19301;SDS011;9785;59.362;12.152;2023-11-22T12:27:42;2.30;;;0.73;;
19301;SDS011;9785;59.362;12.152;2023-11-22T12:30:27;3.10;;;0.63;;
19301;SDS011;9785;59.362;12.152;2023-11-22T12:32:58;9.17;;;1.43;;
19301;SDS011;9785;59.362;12.152;2023-11-22T12:35:29;8.17;;;1.13;;
19301;SDS011;9785;59.362;12.152;2023-11-22T12:37:58;4.43;;;1.20;;
19301;SDS011;9785;59.362;12.152;2023-11-22T12:40:27;3.13;;;0.83;;
19301;SDS011;9785;59.362;12.152;2023-11-22T12:42:59;4.97;;;1.10;;
19301;SDS011;9785;59.362;12.152;2023-11-22T12:45:28;3.33;;;0.90;;
19301;SDS011;9785;59.362;12.152;2023-11-22T12:48:04;7.17;;;1.00;;
19301;SDS011;9785;59.362;12.152;2023-11-22T12:50:50;5.50;;;1.00;;
19301;SDS011;9785;59.362;12.152;2023-11-22T12:53:20;7.20;;;1.10;;
19301;SDS011;9785;59.362;12.152;2023-11-22T12:55:49;6.60;;;1.20;;
19301;SDS011;9785;59.362;12.152;2023-11-22T12:58:19;2.27;;;0.80;;
19301;SDS011;9785;59.362;12.152;2023-11-22T13:00:49;2.00;;;0.90;;
19301;SDS011;9785;59.362;12.152;2023-11-22T13:03:26;6.23;;;1.57;;
19301;SDS011;9785;59.362;12.152;2023-11-22T13:05:55;7.00;;;1.00;;
19301;SDS011;9785;59.362;12.152;2023-11-22T13:08:23;4.40;;;0.70;;
19301;SDS011;9785;59.362;12.152;2023-11-22T13:10:56;1.50;;;0.30;;
19301;SDS011;9785;59.362;12.152;2023-11-22T13:13:25;11.37;;;1.00;;
19301;SDS011;9785;59.362;12.152;2023-11-22T13:15:54;7.93;;;1.10;;
19301;SDS011;9785;59.362;12.152;2023-11-22T13:18:23;9.00;;;1.00;;
19301;SDS011;9785;59.362;12.152;2023-11-22T13:20:54;0.83;;;0.60;;
19301;SDS011;9785;59.362;12.152;2023-11-22T13:23:22;3.37;;;0.80;;
19301;SDS011;9785;59.362;12.152;2023-11-22T13:25:50;4.67;;;0.77;;
19301;SDS011;9785;59.362;12.152;2023-11-22T13:28:19;5.60;;;1.20;;
19301;SDS011;9785;59.362;12.152;2023-11-22T13:30:47;5.03;;;0.73;;
19301;SDS011;9785;59.362;12.152;2023-11-22T13:33:17;3.87;;;1.00;;
19301;SDS011;9785;59.362;12.152;2023-11-22T13:35:47;2.80;;;0.57;;
19301;SDS011;9785;59.362;12.152;2023-11-22T13:38:15;4.60;;;1.43;;
19301;SDS011;9785;59.362;12.152;2023-11-22T13:40:45;9.37;;;1.03;;
19301;SDS011;9785;59.362;12.152;2023-11-22T13:43:13;1.63;;;0.47;;
19301;SDS011;9785;59.362;12.152;2023-11-22T13:45:43;2.33;;;0.33;;
19301;SDS011;9785;59.362;12.152;2023-11-22T13:48:12;6.97;;;0.90;;
19301;SDS011;9785;59.362;12.152;2023-11-22T13:50:40;6.50;;;0.60;;
19301;SDS011;9785;59.362;12.152;2023-11-22T13:53:10;7.13;;;0.73;;
19301;SDS011;9785;59.362;12.152;2023-11-22T13:55:38;10.17;;;0.90;;
19301;SDS011;9785;59.362;12.152;2023-11-22T13:58:07;6.00;;;0.90;;
19301;SDS011;9785;59.362;12.152;2023-11-22T14:00:35;7.83;;;0.87;;
19301;SDS011;9785;59.362;12.152;2023-11-22T14:03:05;1.33;;;0.70;;
19301;SDS011;9785;59.362;12.152;2023-11-22T14:05:35;0.23;;;0.23;;
19301;SDS011;9785;59.362;12.152;2023-11-22T14:08:05;3.40;;;0.90;;
19301;SDS011;9785;59.362;12.152;2023-11-22T14:10:35;3.07;;;0.63;;
19301;SDS011;9785;59.362;12.152;2023-11-22T14:13:04;5.17;;;0.80;;
19301;SDS011;9785;59.362;12.152;2023-11-22T14:15:34;0.93;;;0.43;;
19301;SDS011;9785;59.362;12.152;2023-11-22T14:18:04;5.87;;;1.20;;
19301;SDS011;9785;59.362;12.152;2023-11-22T14:20:33;4.17;;;0.90;;
19301;SDS011;9785;59.362;12.152;2023-11-22T14:23:03;6.27;;;1.53;;
19301;SDS011;9785;59.362;12.152;2023-11-22T14:25:35;7.30;;;0.77;;
19301;SDS011;9785;59.362;12.152;2023-11-22T14:28:06;7.17;;;1.13;;
19301;SDS011;9785;59.362;12.152;2023-11-22T14:30:35;4.87;;;1.20;;
19301;SDS011;9785;59.362;12.152;2023-11-22T14:33:03;8.47;;;1.07;;
19301;SDS011;9785;59.362;12.152;2023-11-22T14:35:34;6.77;;;1.03;;
19301;SDS011;9785;59.362;12.152;2023-11-22T14:38:03;3.00;;;0.60;;
19301;SDS011;9785;59.362;12.152;2023-11-22T14:40:36;4.70;;;1.20;;
19301;SDS011;9785;59.362;12.152;2023-11-22T14:43:06;9.73;;;1.20;;
19301;SDS011;9785;59.362;12.152;2023-11-22T14:45:34;6.03;;;1.00;;
19301;SDS011;9785;59.362;12.152;2023-11-22T14:48:04;1.10;;;0.77;;
19301;SDS011;9785;59.362;12.152;2023-11-22T14:50:33;5.00;;;0.77;;
19301;SDS011;9785;59.362;12.152;2023-11-22T14:53:02;4.63;;;1.00;;
19301;SDS011;9785;59.362;12.152;2023-11-22T14:55:30;6.67;;;0.83;;
19301;SDS011;9785;59.362;12.152;2023-11-22T14:58:01;1.10;;;0.67;;
19301;SDS011;9785;59.362;12.152;2023-11-22T15:00:29;14.57;;;1.30;;
19301;SDS011;9785;59.362;12.152;2023-11-22T15:02:57;10.00;;;1.20;;
19301;SDS011;9785;59.362;12.152;2023-11-22T15:05:26;8.80;;;1.30;;